createdAt,value
2023-01-21T00:01:14.916Z,1.16
2023-01-21T00:03:42.719Z,1.28
2023-01-21T00:06:10.414Z,1.30
2023-01-21T00:08:37.541Z,1.38
2023-01-21T00:11:11.462Z,1.64
2023-01-21T00:13:38.450Z,1.30
2023-01-21T00:16:06.470Z,1.25
2023-01-21T00:18:34.666Z,1.38
2023-01-21T00:21:02.322Z,1.36
2023-01-21T00:23:29.453Z,1.40
2023-01-21T00:26:05.865Z,1.21
2023-01-21T00:28:34.911Z,1.46
2023-01-21T00:31:05.357Z,1.41
2023-01-21T00:33:33.556Z,1.42
2023-01-21T00:36:13.936Z,1.35
2023-01-21T00:38:41.284Z,1.29
2023-01-21T00:41:12.575Z,1.33
2023-01-21T00:43:43.504Z,1.29
2023-01-21T00:46:11.342Z,1.09
2023-01-21T00:48:38.475Z,1.04
2023-01-21T00:51:05.768Z,1.19
2023-01-21T00:53:35.978Z,1.13
2023-01-21T00:56:06.653Z,0.95
2023-01-21T00:58:34.812Z,0.88
2023-01-21T01:01:11.312Z,1.10
2023-01-21T01:03:40.238Z,1.29
2023-01-21T01:06:17.491Z,1.00
2023-01-21T01:08:45.684Z,1.10
2023-01-21T01:11:14.119Z,1.04
2023-01-21T01:13:41.595Z,1.22
2023-01-21T01:16:10.996Z,1.09
2023-01-21T01:18:38.153Z,1.13
2023-01-21T01:21:06.107Z,1.05
2023-01-21T01:23:33.203Z,1.10
2023-01-21T01:26:06.610Z,1.01
2023-01-21T01:28:34.602Z,0.93
2023-01-21T01:31:05.565Z,0.96
2023-01-21T01:33:33.360Z,0.79
2023-01-21T01:36:10.766Z,0.73
2023-01-21T01:38:37.648Z,0.67
2023-01-21T01:41:04.973Z,0.82
2023-01-21T01:44:26.226Z,0.86
2023-01-21T01:46:56.998Z,0.73
2023-01-21T01:49:24.137Z,0.78
2023-01-21T01:51:58.118Z,0.78
2023-01-21T01:54:30.434Z,0.64
2023-01-21T01:57:02.010Z,0.62
2023-01-21T01:59:30.447Z,0.71
2023-01-21T02:02:01.050Z,0.49
2023-01-21T02:04:34.671Z,0.63
2023-01-21T02:07:01.853Z,0.78
2023-01-21T02:09:30.005Z,0.73
2023-01-21T02:11:59.898Z,0.79
2023-01-21T02:14:28.577Z,0.64
2023-01-21T02:17:45.662Z,0.46
2023-01-21T02:20:24.522Z,0.36
2023-01-21T02:23:49.389Z,0.48
2023-01-21T02:26:48.889Z,0.47
2023-01-21T02:29:40.217Z,0.29
2023-01-21T02:33:03.474Z,0.28
2023-01-21T02:35:59.661Z,0.42
2023-01-21T02:38:31.511Z,0.37
2023-01-21T02:41:35.730Z,0.27
2023-01-21T02:44:15.202Z,0.22
2023-01-21T02:46:56.675Z,0.18
2023-01-21T02:49:52.932Z,0.17
2023-01-21T02:52:23.445Z,0.15
2023-01-21T02:54:57.203Z,-0.02
2023-01-21T02:57:56.580Z,-0.04
2023-01-21T03:00:42.503Z,0.03
2023-01-21T03:03:23.284Z,-0.07
2023-01-21T03:06:20.067Z,-0.17
2023-01-21T03:09:25.484Z,-0.18
2023-01-21T03:12:20.534Z,-0.38
2023-01-21T03:15:19.721Z,-0.34
2023-01-21T03:18:08.522Z,-0.45
2023-01-21T03:20:44.000Z,-0.39
2023-01-21T03:23:19.516Z,-0.48
2023-01-21T03:25:48.655Z,-0.41
2023-01-21T03:28:22.076Z,-0.54
2023-01-21T03:31:00.241Z,-0.55
2023-01-21T03:33:30.738Z,-0.77
2023-01-21T03:36:00.852Z,-0.74
2023-01-21T03:38:37.624Z,-0.77
2023-01-21T03:41:13.658Z,-0.80
2023-01-21T03:43:40.820Z,-0.92
2023-01-21T03:46:12.717Z,-0.96
2023-01-21T03:48:49.225Z,-1.01
2023-01-21T03:51:22.787Z,-1.26
2023-01-21T03:53:58.060Z,-1.30
2023-01-21T03:56:28.624Z,-1.33
2023-01-21T03:58:55.636Z,-1.33
2023-01-21T04:01:22.931Z,-1.70
2023-01-21T04:03:49.887Z,-2.02
2023-01-21T04:06:20.643Z,-1.77
2023-01-21T04:08:48.653Z,-1.74
2023-01-21T04:11:15.978Z,-1.69
2023-01-21T04:13:43.158Z,-1.91
2023-01-21T04:16:10.108Z,-1.99
2023-01-21T04:18:37.044Z,-2.11
2023-01-21T04:21:04.133Z,-2.07
2023-01-21T04:23:31.183Z,-1.96
2023-01-21T04:25:58.102Z,-2.00
2023-01-21T04:28:25.048Z,-1.90
2023-01-21T04:30:52.125Z,-1.96
2023-01-21T04:33:19.042Z,-1.95
2023-01-21T04:35:45.964Z,-2.21
2023-01-21T04:38:13.788Z,-2.02
2023-01-21T04:40:40.708Z,-2.18
2023-01-21T04:43:07.986Z,-2.25
2023-01-21T04:45:34.997Z,-2.13
2023-01-21T04:48:01.985Z,-2.08
2023-01-21T04:50:28.918Z,-1.97
2023-01-21T04:52:55.805Z,-1.83
2023-01-21T04:55:24.244Z,-1.87
2023-01-21T04:57:53.005Z,-1.74
2023-01-21T05:00:20.351Z,-1.77
2023-01-21T05:02:47.226Z,-1.68
2023-01-21T05:05:14.270Z,-1.73
2023-01-21T05:07:41.132Z,-1.93
2023-01-21T05:10:09.920Z,-1.75
2023-01-21T05:12:36.840Z,-1.78
2023-01-21T05:15:04.849Z,-1.73
2023-01-21T05:17:31.716Z,-1.84
2023-01-21T05:19:58.611Z,-1.84
2023-01-21T05:22:25.584Z,-2.02
2023-01-21T05:24:52.440Z,-2.03
2023-01-21T05:27:21.653Z,-2.06
2023-01-21T05:29:48.881Z,-2.18
2023-01-21T05:32:15.791Z,-2.25
2023-01-21T05:34:42.761Z,-2.52
2023-01-21T05:37:10.966Z,-2.51
2023-01-21T05:39:37.855Z,-2.52
2023-01-21T05:42:04.831Z,-2.69
2023-01-21T05:44:31.719Z,-2.72
2023-01-21T05:46:58.573Z,-2.61
2023-01-21T05:49:25.545Z,-2.77
2023-01-21T05:51:52.462Z,-2.60
2023-01-21T05:54:19.435Z,-2.53
2023-01-21T05:56:46.336Z,-2.61
2023-01-21T05:59:13.342Z,-2.78
2023-01-21T06:01:40.202Z,-2.94
2023-01-21T06:04:07.136Z,-2.82
2023-01-21T06:06:34.172Z,-2.96
2023-01-21T06:09:01.094Z,-3.29
2023-01-21T06:11:28.044Z,-3.28
2023-01-21T06:13:54.914Z,-3.39
2023-01-21T06:16:21.762Z,-3.32
2023-01-21T06:18:48.680Z,-3.63
2023-01-21T06:21:15.674Z,-3.64
2023-01-21T06:23:42.902Z,-3.56
2023-01-21T06:26:09.779Z,-3.63
2023-01-21T06:28:36.663Z,-3.65
2023-01-21T06:31:03.691Z,-3.69
2023-01-21T06:33:30.658Z,-3.58
2023-01-21T06:35:57.560Z,-3.47
2023-01-21T06:38:24.587Z,-3.10
2023-01-21T06:40:51.478Z,-3.03
2023-01-21T06:43:18.364Z,-2.89
2023-01-21T06:45:48.009Z,-2.96
2023-01-21T06:48:14.901Z,-3.16
2023-01-21T06:50:41.819Z,-3.36
2023-01-21T06:53:08.782Z,-3.61
2023-01-21T06:55:35.674Z,-3.64
2023-01-21T06:58:02.556Z,-3.26
2023-01-21T07:00:29.632Z,-3.17
2023-01-21T07:02:59.762Z,-3.26
2023-01-21T07:05:27.508Z,-3.26
2023-01-21T07:07:56.066Z,-3.29
2023-01-21T07:10:26.485Z,-3.18
2023-01-21T07:12:53.398Z,-2.99
2023-01-21T07:15:20.337Z,-3.24
2023-01-21T07:17:47.272Z,-2.99
2023-01-21T07:20:14.350Z,-2.93
2023-01-21T07:22:41.244Z,-2.74
2023-01-21T07:25:09.192Z,-2.67
2023-01-21T07:27:36.130Z,-2.54
2023-01-21T07:30:03.156Z,-2.33
2023-01-21T07:32:30.115Z,-2.23
2023-01-21T07:34:56.994Z,-2.40
2023-01-21T07:37:23.911Z,-1.83
2023-01-21T07:39:52.229Z,-1.74
2023-01-21T07:42:20.010Z,-1.61
2023-01-21T07:44:47.004Z,-1.70
2023-01-21T07:47:13.911Z,-1.66
2023-01-21T07:49:41.459Z,-1.49
2023-01-21T07:52:08.357Z,-1.33
2023-01-21T07:54:35.306Z,-1.30
2023-01-21T07:57:02.236Z,-1.21
2023-01-21T07:59:29.115Z,-1.17
2023-01-21T08:01:57.924Z,-1.24
2023-01-21T08:04:25.439Z,-1.32
2023-01-21T08:06:56.894Z,-1.44
2023-01-21T08:09:24.909Z,-1.63
2023-01-21T08:11:52.405Z,-1.65
2023-01-21T08:14:19.383Z,-1.59
2023-01-21T08:16:46.305Z,-1.80
2023-01-21T08:19:14.015Z,-1.92
2023-01-21T08:21:41.109Z,-1.76
2023-01-21T08:24:10.493Z,-1.87
2023-01-21T08:26:37.604Z,-1.80
2023-01-21T08:29:04.545Z,-1.80
2023-01-21T08:31:31.669Z,-1.85
2023-01-21T08:33:59.557Z,-1.96
2023-01-21T08:36:26.838Z,-2.02
2023-01-21T08:38:55.331Z,-2.08
2023-01-21T08:41:22.283Z,-2.14
2023-01-21T08:43:49.314Z,-2.02
2023-01-21T08:46:16.290Z,-2.01
2023-01-21T08:48:43.238Z,-1.92
2023-01-21T08:51:10.403Z,-1.98
2023-01-21T08:53:37.331Z,-1.78
2023-01-21T08:56:05.736Z,-1.93
2023-01-21T08:58:33.019Z,-1.73
2023-01-21T09:01:08.310Z,-1.83
2023-01-21T09:03:35.611Z,-1.72
2023-01-21T09:06:03.998Z,-1.66
2023-01-21T09:08:31.169Z,-1.77
2023-01-21T09:11:03.069Z,-1.62
2023-01-21T09:13:32.225Z,-1.41
2023-01-21T09:16:00.571Z,-1.42
2023-01-21T09:18:27.949Z,-1.30
2023-01-21T09:21:00.499Z,-1.17
2023-01-21T09:23:28.148Z,-1.42
2023-01-21T09:26:02.305Z,-1.37
2023-01-21T09:28:30.589Z,-1.85
2023-01-21T09:31:07.303Z,-1.67
2023-01-21T09:33:38.316Z,-1.88
2023-01-21T09:36:07.658Z,-1.85
2023-01-21T09:38:34.991Z,-2.00
2023-01-21T09:41:50.620Z,-1.91
2023-01-21T09:44:23.672Z,-1.98
2023-01-21T09:47:02.272Z,-2.21
2023-01-21T09:49:42.411Z,-1.94
2023-01-21T09:52:38.009Z,-1.80
2023-01-21T09:55:12.178Z,-1.73
2023-01-21T09:58:20.709Z,-1.51
2023-01-21T10:01:24.522Z,-1.38
2023-01-21T10:04:30.018Z,-1.29
2023-01-21T10:07:17.105Z,-1.22
2023-01-21T10:09:47.052Z,-1.12
2023-01-21T10:13:05.987Z,-1.06
2023-01-21T10:15:35.724Z,-1.06
2023-01-21T10:18:13.160Z,-1.00
2023-01-21T10:21:05.822Z,-0.99
2023-01-21T10:23:39.529Z,-0.80
2023-01-21T10:26:11.985Z,-0.83
2023-01-21T10:28:48.071Z,-1.13
2023-01-21T10:31:32.781Z,-1.14
2023-01-21T10:33:59.734Z,-1.13
2023-01-21T10:36:35.008Z,-1.18
2023-01-21T10:39:27.182Z,-1.16
2023-01-21T10:42:03.859Z,-1.02
2023-01-21T10:45:01.523Z,-1.15
2023-01-21T10:47:59.664Z,-0.98
2023-01-21T10:50:50.453Z,-1.04
2023-01-21T10:53:31.088Z,-1.17
2023-01-21T10:56:36.339Z,-1.08
2023-01-21T10:59:09.706Z,-1.15
2023-01-21T11:01:45.388Z,-1.11
2023-01-21T11:04:21.463Z,-1.11
2023-01-21T11:07:02.404Z,-1.19
2023-01-21T11:09:35.321Z,-1.00
2023-01-21T11:12:03.013Z,-0.87
2023-01-21T11:14:30.063Z,-0.77
2023-01-21T11:16:58.138Z,-0.90
2023-01-21T11:19:30.904Z,-1.03
2023-01-21T11:22:12.539Z,-1.15
2023-01-21T11:24:48.814Z,-1.05
2023-01-21T11:27:37.565Z,-1.08
2023-01-21T11:30:21.078Z,-1.14
2023-01-21T11:32:54.390Z,-0.92
2023-01-21T11:35:23.152Z,-0.92
2023-01-21T11:37:50.194Z,-1.02
2023-01-21T11:40:25.749Z,-1.01
2023-01-21T11:42:56.112Z,-0.91
2023-01-21T11:45:36.836Z,-0.92
2023-01-21T11:48:24.071Z,-0.88
2023-01-21T11:51:05.808Z,-0.96
2023-01-21T11:53:32.847Z,-0.93
2023-01-21T11:56:01.303Z,-0.84
2023-01-21T11:58:37.854Z,-0.75
2023-01-21T12:01:19.412Z,-0.81
2023-01-21T12:03:53.923Z,-0.92
2023-01-21T12:06:25.999Z,-0.95
2023-01-21T12:08:57.354Z,-0.83
2023-01-21T12:11:27.141Z,-0.88
2023-01-21T12:14:34.496Z,-1.00
2023-01-21T12:17:21.927Z,-1.09
2023-01-21T12:20:11.852Z,-0.95
2023-01-21T12:22:46.314Z,-0.84
2023-01-21T12:25:42.238Z,-0.89
2023-01-21T12:28:21.577Z,-0.93
2023-01-21T12:31:23.845Z,-0.93
2023-01-21T12:34:15.928Z,-0.97
2023-01-21T12:36:53.195Z,-0.91
2023-01-21T12:39:35.832Z,-0.95
2023-01-21T12:42:21.426Z,-0.94
2023-01-21T12:44:52.357Z,-0.98
2023-01-21T12:47:32.942Z,-0.95
2023-01-21T12:50:29.379Z,-0.93
2023-01-21T12:53:06.053Z,-0.84
2023-01-21T12:56:08.057Z,-0.77
2023-01-21T12:59:07.414Z,-0.82
2023-01-21T13:02:05.907Z,-0.77
2023-01-21T13:04:56.521Z,-0.71
2023-01-21T13:07:55.276Z,-0.60
2023-01-21T13:10:40.901Z,-0.45
2023-01-21T13:13:21.307Z,-0.43
2023-01-21T13:15:54.145Z,-0.33
2023-01-21T13:18:50.280Z,-0.24
2023-01-21T13:21:54.027Z,-0.34
2023-01-21T13:24:53.071Z,-0.37
2023-01-21T13:27:40.388Z,-0.46
2023-01-21T13:30:20.026Z,-0.55
2023-01-21T13:33:06.388Z,-0.56
2023-01-21T13:35:57.925Z,-0.50
2023-01-21T13:39:01.647Z,-0.47
2023-01-21T13:42:32.933Z,-0.45
2023-01-21T13:45:18.204Z,-0.41
2023-01-21T13:48:16.266Z,-0.35
2023-01-21T13:51:07.720Z,-0.36
2023-01-21T13:54:04.479Z,-0.42
2023-01-21T13:56:43.232Z,-0.38
2023-01-21T13:59:21.648Z,-0.35
2023-01-21T14:02:00.587Z,-0.35
2023-01-21T14:04:39.069Z,-0.47
2023-01-21T14:07:38.283Z,-0.44
2023-01-21T14:10:22.528Z,-0.26
2023-01-21T14:13:20.839Z,-0.23
2023-01-21T14:16:29.631Z,-0.29
2023-01-21T14:19:13.201Z,-0.26
2023-01-21T14:22:04.394Z,-0.34
2023-01-21T14:24:46.250Z,-0.30
2023-01-21T14:27:27.913Z,-0.37
2023-01-21T14:30:22.991Z,-0.33
2023-01-21T14:33:07.909Z,-0.31
2023-01-21T14:35:49.288Z,-0.31
2023-01-21T14:39:06.433Z,-0.36
2023-01-21T14:42:04.451Z,-0.36
2023-01-21T14:44:40.323Z,-0.47
2023-01-21T14:47:24.786Z,-0.42
2023-01-21T14:49:54.347Z,-0.43
2023-01-21T14:52:37.198Z,-0.42
2023-01-21T14:55:29.555Z,-0.49
2023-01-21T14:58:00.681Z,-0.39
2023-01-21T15:00:36.878Z,-0.40
2023-01-21T15:03:30.479Z,-0.44
2023-01-21T15:06:09.057Z,-0.43
2023-01-21T15:08:46.122Z,-0.53
2023-01-21T15:11:30.416Z,-0.46
2023-01-21T15:14:23.427Z,-0.49
2023-01-21T15:16:50.627Z,-0.38
2023-01-21T15:19:31.164Z,-0.42
2023-01-21T15:22:19.088Z,-0.46
2023-01-21T15:25:06.665Z,-0.41
2023-01-21T15:27:33.563Z,-0.38
2023-01-21T15:30:06.252Z,-0.48
2023-01-21T15:32:41.027Z,-0.36
2023-01-21T15:35:33.644Z,-0.51
2023-01-21T15:38:12.539Z,-0.48
2023-01-21T15:40:53.721Z,-0.36
2023-01-21T15:43:54.956Z,-0.36
2023-01-21T15:46:52.640Z,-0.42
2023-01-21T15:50:16.043Z,-0.44
2023-01-21T15:53:14.039Z,-0.49
2023-01-21T15:56:17.945Z,-0.47
2023-01-21T15:59:25.080Z,-0.45
2023-01-21T16:02:08.483Z,-0.34
2023-01-21T16:04:55.155Z,-0.48
2023-01-21T16:08:12.304Z,-0.41
2023-01-21T16:10:58.700Z,-0.42
2023-01-21T16:13:37.372Z,-0.44
2023-01-21T16:16:39.829Z,-0.40
2023-01-21T16:19:11.661Z,-0.44
2023-01-21T16:21:43.897Z,-0.45
2023-01-21T16:24:19.047Z,-0.47
2023-01-21T16:26:46.208Z,-0.48
2023-01-21T16:29:15.163Z,-0.46
2023-01-21T16:31:52.353Z,-0.47
2023-01-21T16:34:40.252Z,-0.45
2023-01-21T16:37:13.404Z,-0.48
2023-01-21T16:39:41.931Z,-0.41
2023-01-21T16:42:36.995Z,-0.33
2023-01-21T16:45:21.632Z,-0.45
2023-01-21T16:48:00.639Z,-0.46
2023-01-21T16:50:29.771Z,-0.42
2023-01-21T16:52:59.281Z,-0.51
2023-01-21T16:55:30.896Z,-0.41
2023-01-21T16:57:59.538Z,-0.38
2023-01-21T17:00:32.339Z,-0.37
2023-01-21T17:03:00.535Z,-0.46
2023-01-21T17:05:33.827Z,-0.48
2023-01-21T17:08:04.460Z,-0.42
2023-01-21T17:10:40.376Z,-0.46
2023-01-21T17:13:16.091Z,-0.43
2023-01-21T17:15:59.938Z,-0.40
2023-01-21T17:18:36.748Z,-0.37
2023-01-21T17:21:36.878Z,-0.32
2023-01-21T17:24:15.239Z,-0.24
2023-01-21T17:26:49.898Z,-0.21
2023-01-21T17:29:21.747Z,-0.15
2023-01-21T17:31:58.428Z,-0.08
2023-01-21T17:34:32.139Z,-0.13
2023-01-21T17:36:59.918Z,-0.14
2023-01-21T17:39:49.134Z,-0.16
2023-01-21T17:42:23.795Z,-0.16
2023-01-21T17:44:58.173Z,-0.15
2023-01-21T17:47:49.093Z,-0.21
2023-01-21T17:50:27.603Z,-0.18
2023-01-21T17:53:01.599Z,-0.24
2023-01-21T17:55:33.725Z,-0.12
2023-01-21T17:58:32.504Z,-0.17
2023-01-21T18:01:04.351Z,-0.19
2023-01-21T18:03:31.284Z,-0.18
2023-01-21T18:05:58.544Z,-0.19
2023-01-21T18:08:25.735Z,-0.12
2023-01-21T18:10:52.802Z,-0.11
2023-01-21T18:13:21.989Z,-0.07
2023-01-21T18:15:51.599Z,-0.01
2023-01-21T18:18:27.948Z,-0.04
2023-01-21T18:20:55.340Z,-0.06
2023-01-21T18:23:22.323Z,-0.06
2023-01-21T18:25:52.533Z,-0.05
2023-01-21T18:28:28.957Z,-0.08
2023-01-21T18:30:57.885Z,-0.03
2023-01-21T18:33:25.818Z,0.04
2023-01-21T18:35:53.158Z,-0.02
2023-01-21T18:38:27.218Z,-0.05
2023-01-21T18:40:56.373Z,-0.05
2023-01-21T18:43:25.249Z,-0.07
2023-01-21T18:45:54.497Z,-0.07
2023-01-21T18:48:28.440Z,-0.06
2023-01-21T18:50:55.976Z,-0.05
2023-01-21T18:53:23.037Z,-0.17
2023-01-21T18:55:53.649Z,-0.14
2023-01-21T18:58:20.721Z,-0.18
2023-01-21T19:00:48.127Z,-0.19
2023-01-21T19:03:16.111Z,-0.16
2023-01-21T19:05:47.604Z,-0.15
2023-01-21T19:08:21.889Z,-0.23
2023-01-21T19:10:49.016Z,-0.24
2023-01-21T19:13:16.031Z,-0.17
2023-01-21T19:15:43.681Z,-0.23
2023-01-21T19:18:16.036Z,-0.09
2023-01-21T19:20:44.233Z,-0.16
2023-01-21T19:23:17.644Z,-0.26
2023-01-21T19:25:56.259Z,-0.26
2023-01-21T19:28:25.080Z,-0.21
2023-01-21T19:30:55.299Z,-0.15
2023-01-21T19:33:23.463Z,-0.33
2023-01-21T19:35:59.803Z,-0.21
2023-01-21T19:38:27.003Z,-0.27
2023-01-21T19:40:55.669Z,-0.26
2023-01-21T19:43:23.458Z,-0.14
2023-01-21T19:45:52.289Z,-0.21
2023-01-21T19:48:21.498Z,-0.18
2023-01-21T19:50:49.020Z,-0.07
2023-01-21T19:53:20.810Z,-0.11
2023-01-21T19:55:51.912Z,-0.06
2023-01-21T19:58:22.842Z,-0.06
2023-01-21T20:00:53.455Z,-0.07
2023-01-21T20:03:23.075Z,-0.01
2023-01-21T20:05:53.818Z,-0.08
2023-01-21T20:08:27.950Z,0.01
2023-01-21T20:10:55.272Z,-0.01
2023-01-21T20:13:22.759Z,-0.07
2023-01-21T20:15:51.831Z,-0.01
2023-01-21T20:18:28.108Z,-0.03
2023-01-21T20:20:55.330Z,-0.04
2023-01-21T20:23:23.710Z,0.02
2023-01-21T20:25:56.637Z,0.05
2023-01-21T20:28:34.988Z,0.10
2023-01-21T20:31:07.826Z,0.07
2023-01-21T20:33:36.130Z,-0.05
2023-01-21T20:36:06.079Z,0.15
2023-01-21T20:38:38.405Z,0.07
2023-01-21T20:41:05.759Z,0.07
2023-01-21T20:43:33.105Z,0.15
2023-01-21T20:46:03.881Z,0.17
2023-01-21T20:48:35.889Z,0.18
2023-01-21T20:51:03.584Z,0.14
2023-01-21T20:53:31.130Z,0.16
2023-01-21T20:56:01.072Z,0.22
2023-01-21T20:58:28.113Z,0.16
2023-01-21T21:00:55.191Z,0.22
2023-01-21T21:03:22.173Z,0.22
2023-01-21T21:05:49.657Z,0.18
2023-01-21T21:08:20.482Z,0.13
2023-01-21T21:10:48.242Z,0.09
2023-01-21T21:13:15.171Z,0.21
2023-01-21T21:15:45.703Z,0.22
2023-01-21T21:18:14.570Z,0.33
2023-01-21T21:20:41.693Z,0.22
2023-01-21T21:23:15.295Z,0.20
2023-01-21T21:25:47.024Z,0.29
2023-01-21T21:28:16.889Z,0.26
2023-01-21T21:30:43.990Z,0.26
2023-01-21T21:33:19.024Z,0.34
2023-01-21T21:35:46.877Z,0.31
2023-01-21T21:38:21.969Z,0.29
2023-01-21T21:40:52.985Z,0.27
2023-01-21T21:43:33.364Z,0.29
2023-01-21T21:46:30.445Z,0.46
2023-01-21T21:48:57.465Z,0.26
2023-01-21T21:51:24.578Z,0.19
2023-01-21T21:53:51.796Z,0.22
2023-01-21T21:56:20.528Z,0.17
2023-01-21T21:58:48.104Z,0.13
2023-01-21T22:01:25.091Z,0.13
2023-01-21T22:03:52.902Z,0.08
2023-01-21T22:06:22.388Z,0.01
2023-01-21T22:08:49.855Z,0.08
2023-01-21T22:11:20.461Z,0.04
2023-01-21T22:13:50.536Z,-0.01
2023-01-21T22:16:24.917Z,0.05
2023-01-21T22:18:52.811Z,0.02
2023-01-21T22:21:24.541Z,-0.05
2023-01-21T22:23:52.243Z,0.05
2023-01-21T22:26:22.842Z,-0.04
2023-01-21T22:28:53.015Z,-0.10
2023-01-21T22:31:29.707Z,-0.04
2023-01-21T22:33:58.363Z,-0.13
2023-01-21T22:36:28.696Z,-0.07
2023-01-21T22:38:55.749Z,-0.16
2023-01-21T22:41:24.331Z,-0.14
2023-01-21T22:43:52.266Z,-0.15
2023-01-21T22:46:25.793Z,-0.09
2023-01-21T22:48:56.140Z,-0.17
2023-01-21T22:51:23.749Z,-0.18
2023-01-21T22:53:51.892Z,-0.21
2023-01-21T22:56:25.403Z,-0.21
2023-01-21T22:58:58.618Z,-0.20
2023-01-21T23:01:31.603Z,-0.21
2023-01-21T23:03:59.849Z,-0.27
2023-01-21T23:06:27.461Z,-0.25
2023-01-21T23:08:55.614Z,-0.17
2023-01-21T23:11:22.604Z,-0.23
2023-01-21T23:13:49.896Z,-0.24
2023-01-21T23:16:19.637Z,-0.13
2023-01-21T23:18:47.083Z,-0.25
2023-01-21T23:21:20.943Z,-0.27
2023-01-21T23:23:49.129Z,-0.26
2023-01-21T23:26:19.145Z,-0.28
2023-01-21T23:28:47.205Z,-0.28
2023-01-21T23:31:17.382Z,-0.25
2023-01-21T23:33:44.806Z,-0.17
2023-01-21T23:36:15.748Z,-0.26
2023-01-21T23:38:43.302Z,-0.29
2023-01-21T23:41:13.891Z,-0.27
2023-01-21T23:43:41.056Z,-0.34
2023-01-21T23:46:18.329Z,-0.33
2023-01-21T23:48:45.600Z,-0.28
2023-01-21T23:51:15.963Z,-0.37
2023-01-21T23:53:43.147Z,-0.33
2023-01-21T23:56:16.199Z,-0.41
2023-01-21T23:58:43.828Z,-0.40
